Time;durP1;ratioP1;P1;durP2;ratioP2;P2;SDS_P1;SDS_P2;PMS_P1;PMS_P2;Temp;Humidity;BMP_temperature;BMP_pressure;BME280_temperature;BME280_humidity;BME280_pressure;Samples;Min_cycle;Max_cycle;Signal;HPM_P1;HPM_P2
2022/07/02 00:00:35;;;;;;;5.30;3.43;;;;;;;;;;4927611;29;20568;-87
2022/07/02 00:03:48;;;;;;;7.60;3.27;;;;;;;;;;4939607;29;20673;-88
2022/07/02 00:06:53;;;;;;;4.43;3.00;;;;;;;;;;4929014;29;20196;-88
2022/07/02 00:09:59;;;;;;;3.47;3.10;;;;;;;;;;4917680;29;20189;-88
2022/07/02 00:13:03;;;;;;;4.97;4.33;;;;;;;;;;4928839;29;20188;-87
2022/07/02 00:16:11;;;;;;;7.80;3.60;;;;;;;;;;4928022;29;20631;-89
2022/07/02 00:19:15;;;;;;;8.77;3.70;;;;;;;;;;4926953;29;20525;-89
2022/07/02 00:22:22;;;;;;;7.43;5.77;;;;;;;;;;4906239;29;20196;-89
2022/07/02 00:25:41;;;;;;;7.67;5.57;;;;;;;;;;4927342;29;20200;-88
2022/07/02 00:29:13;;;;;;;10.83;6.80;;;;;;;;;;4923183;29;20236;-88
2022/07/02 00:32:17;;;;;;;8.37;6.63;;;;;;;;;;4926871;29;20202;-88
2022/07/02 00:35:22;;;;;;;10.50;7.73;;;;;;;;;;4916482;29;20184;-88
2022/07/02 00:38:26;;;;;;;9.47;7.30;;;;;;;;;;4904926;29;20224;-88
2022/07/02 00:41:32;;;;;;;16.83;8.60;;;;;;;;;;4905567;29;20220;-87
2022/07/02 00:44:37;;;;;;;10.73;8.00;;;;;;;;;;4916061;29;20251;-87
2022/07/02 00:47:43;;;;;;;10.67;7.57;;;;;;;;;;4915422;29;20595;-87
2022/07/02 00:50:47;;;;;;;9.80;7.67;;;;;;;;;;4925622;29;20200;-87
2022/07/02 00:53:51;;;;;;;9.17;6.77;;;;;;;;;;4905140;29;20207;-89
2022/07/02 00:56:56;;;;;;;13.53;6.73;;;;;;;;;;4926483;29;20203;-89
2022/07/02 01:00:00;;;;;;;10.60;7.30;;;;;;;;;;4925856;29;20223;-87
2022/07/02 01:03:05;;;;;;;8.83;6.93;;;;;;;;;;4915875;29;20195;-87
2022/07/02 01:06:09;;;;;;;8.03;6.67;;;;;;;;;;4905144;29;20192;-88
2022/07/02 01:12:41;;;;;;;7.07;6.37;;;;;;;;;;4926292;29;20567;-89
2022/07/02 01:15:45;;;;;;;7.67;5.73;;;;;;;;;;4904676;29;20188;-89
2022/07/02 01:18:50;;;;;;;8.03;5.77;;;;;;;;;;4926426;29;20224;-89
2022/07/02 01:22:25;;;;;;;7.30;5.70;;;;;;;;;;4915986;29;20520;-89
2022/07/02 01:25:30;;;;;;;6.23;5.50;;;;;;;;;;4905020;29;20184;-89
2022/07/02 01:28:34;;;;;;;5.90;5.20;;;;;;;;;;4915277;29;20216;-87
2022/07/02 01:31:38;;;;;;;6.67;5.37;;;;;;;;;;4926153;29;20180;-88
2022/07/02 01:34:48;;;;;;;5.47;4.97;;;;;;;;;;4926870;29;20176;-87
2022/07/02 01:37:53;;;;;;;5.40;4.90;;;;;;;;;;4926316;29;20224;-87
2022/07/02 01:41:38;;;;;;;8.73;5.03;;;;;;;;;;4926455;29;20572;-88
2022/07/02 01:44:21;;;;;;;4.90;4.40;;;;;;;;;;4937925;29;20184;-89
2022/07/02 01:47:25;;;;;;;5.33;4.83;;;;;;;;;;4915962;29;20219;-89
2022/07/02 01:50:29;;;;;;;7.73;4.27;;;;;;;;;;4905142;29;20188;-88
2022/07/02 01:53:33;;;;;;;4.77;3.97;;;;;;;;;;4925978;29;20196;-88
2022/07/02 01:56:37;;;;;;;4.80;4.00;;;;;;;;;;4905068;29;20200;-88
2022/07/02 01:59:41;;;;;;;4.87;4.10;;;;;;;;;;4925974;29;20670;-88
2022/07/02 02:02:46;;;;;;;3.77;3.47;;;;;;;;;;4904856;29;20184;-88
2022/07/02 02:05:53;;;;;;;3.53;3.23;;;;;;;;;;4915404;29;20184;-88
2022/07/02 02:09:22;;;;;;;4.57;3.27;;;;;;;;;;4925403;29;20216;-88
2022/07/02 02:12:27;;;;;;;3.30;2.87;;;;;;;;;;4904415;29;20640;-86
2022/07/02 02:15:32;;;;;;;3.27;3.03;;;;;;;;;;4914774;29;20196;-87
2022/07/02 02:18:36;;;;;;;5.97;2.73;;;;;;;;;;4925803;29;20224;-87
2022/07/02 02:21:41;;;;;;;3.80;2.77;;;;;;;;;;4904167;29;20224;-89
2022/07/02 02:24:45;;;;;;;11.10;2.60;;;;;;;;;;4925633;29;20192;-89
2022/07/02 02:27:50;;;;;;;3.97;2.20;;;;;;;;;;4914805;29;20220;-88
2022/07/02 02:30:54;;;;;;;2.47;2.27;;;;;;;;;;4925963;29;20188;-88
2022/07/02 02:33:59;;;;;;;4.37;2.30;;;;;;;;;;4926012;29;20200;-88
2022/07/02 02:37:03;;;;;;;3.33;2.60;;;;;;;;;;4904865;29;20200;-89
2022/07/02 02:40:08;;;;;;;2.70;2.50;;;;;;;;;;4908285;29;20209;-89
2022/07/02 02:43:12;;;;;;;3.20;2.93;;;;;;;;;;4896501;29;20201;-87
2022/07/02 02:46:17;;;;;;;5.67;2.50;;;;;;;;;;4914840;29;20667;-87
2022/07/02 02:49:21;;;;;;;5.80;2.73;;;;;;;;;;4917950;29;20521;-87
2022/07/02 02:52:25;;;;;;;2.97;2.67;;;;;;;;;;4928222;29;20542;-87
2022/07/02 02:55:30;;;;;;;6.80;3.40;;;;;;;;;;4918722;29;20211;-87
2022/07/02 02:58:34;;;;;;;4.20;3.80;;;;;;;;;;4908157;29;20228;-87
2022/07/02 03:01:39;;;;;;;3.60;3.03;;;;;;;;;;4918760;29;20208;-87
2022/07/02 03:04:43;;;;;;;6.77;3.80;;;;;;;;;;4918040;29;20196;-87
2022/07/02 03:07:47;;;;;;;3.50;3.10;;;;;;;;;;4918609;29;20220;-87
2022/07/02 03:10:51;;;;;;;5.43;2.90;;;;;;;;;;4918579;29;20176;-87
2022/07/02 03:13:55;;;;;;;3.90;2.90;;;;;;;;;;4907163;29;20532;-87
2022/07/02 03:17:00;;;;;;;2.90;2.53;;;;;;;;;;4917799;29;20192;-87
2022/07/02 03:20:04;;;;;;;4.33;3.27;;;;;;;;;;4907414;29;20635;-87
2022/07/02 03:23:08;;;;;;;3.70;3.40;;;;;;;;;;4907110;29;20559;-88
2022/07/02 03:26:12;;;;;;;4.53;3.20;;;;;;;;;;4917998;29;20184;-87
2022/07/02 03:29:18;;;;;;;3.63;3.30;;;;;;;;;;4907045;29;20199;-87
2022/07/02 03:32:25;;;;;;;5.17;3.63;;;;;;;;;;4925606;29;20188;-87
2022/07/02 03:35:29;;;;;;;5.13;3.40;;;;;;;;;;4907187;29;20188;-89
2022/07/02 03:38:34;;;;;;;10.60;4.67;;;;;;;;;;4938727;29;20220;-88
2022/07/02 03:41:38;;;;;;;4.00;3.50;;;;;;;;;;4906817;29;20214;-89
2022/07/02 03:44:42;;;;;;;4.57;3.77;;;;;;;;;;4906596;29;20184;-88
2022/07/02 03:47:46;;;;;;;6.23;3.63;;;;;;;;;;4928482;29;20223;-89
2022/07/02 03:50:50;;;;;;;4.30;3.73;;;;;;;;;;4929118;29;20180;-89
2022/07/02 03:53:54;;;;;;;8.03;3.53;;;;;;;;;;4928105;29;20544;-89
2022/07/02 03:56:58;;;;;;;6.53;3.67;;;;;;;;;;4910058;29;20538;-89
2022/07/02 04:00:06;;;;;;;5.53;3.80;;;;;;;;;;4909024;29;20177;-89
2022/07/02 04:03:16;;;;;;;4.40;3.77;;;;;;;;;;4938112;29;20672;-88
2022/07/02 04:06:20;;;;;;;7.73;3.67;;;;;;;;;;4928560;29;20196;-89
2022/07/02 04:09:24;;;;;;;4.60;4.00;;;;;;;;;;4939235;29;20196;-89
2022/07/02 04:12:28;;;;;;;4.33;3.77;;;;;;;;;;4917741;29;20180;-89
2022/07/02 04:15:33;;;;;;;10.03;3.47;;;;;;;;;;4927092;29;20196;-89
2022/07/02 04:18:37;;;;;;;3.70;3.40;;;;;;;;;;4917187;29;20226;-89
2022/07/02 04:21:41;;;;;;;3.80;2.10;;;;;;;;;;4899527;29;20553;-85
2022/07/02 04:24:45;;;;;;;4.00;1.97;;;;;;;;;;4925968;29;20200;-85
2022/07/02 04:27:49;;;;;;;3.50;2.27;;;;;;;;;;4906192;29;20219;-86
2022/07/02 04:30:54;;;;;;;1.57;1.47;;;;;;;;;;4906319;29;20172;-85
2022/07/02 04:33:58;;;;;;;2.80;1.40;;;;;;;;;;4927285;29;20204;-84
2022/07/02 04:37:02;;;;;;;1.77;1.13;;;;;;;;;;4921118;29;20207;-85
2022/07/02 04:40:07;;;;;;;2.67;1.13;;;;;;;;;;4939833;29;20628;-85
2022/07/02 04:43:11;;;;;;;3.27;1.30;;;;;;;;;;4926996;29;20200;-86
2022/07/02 04:46:15;;;;;;;3.67;1.40;;;;;;;;;;4926688;29;20188;-86
2022/07/02 04:49:19;;;;;;;1.73;1.00;;;;;;;;;;4908878;29;20193;-82
2022/07/02 04:52:23;;;;;;;2.20;1.20;;;;;;;;;;4900572;29;20181;-82
2022/07/02 04:55:28;;;;;;;2.37;1.10;;;;;;;;;;4911848;29;20185;-82
2022/07/02 04:58:32;;;;;;;2.17;1.20;;;;;;;;;;4980408;23;20586;-82
2022/07/02 05:01:36;;;;;;;2.40;1.20;;;;;;;;;;4955517;28;20210;-82
2022/07/02 05:04:40;;;;;;;4.47;1.40;;;;;;;;;;4967029;28;20175;-82
2022/07/02 05:07:44;;;;;;;1.57;1.10;;;;;;;;;;4956174;28;20222;-83
2022/07/02 05:10:48;;;;;;;1.97;1.47;;;;;;;;;;4966679;28;20186;-82
2022/07/02 05:13:53;;;;;;;5.67;1.50;;;;;;;;;;4977754;28;20179;-82
2022/07/02 05:16:57;;;;;;;8.27;1.77;;;;;;;;;;4954479;28;20179;-83
2022/07/02 05:20:01;;;;;;;2.70;2.40;;;;;;;;;;4954482;28;20179;-82
2022/07/02 05:23:05;;;;;;;4.10;2.40;;;;;;;;;;4954041;28;20178;-82
2022/07/02 05:26:09;;;;;;;4.47;2.57;;;;;;;;;;4952691;28;20186;-82
2022/07/02 05:29:13;;;;;;;4.30;2.33;;;;;;;;;;4975210;28;20318;-82
2022/07/02 05:32:18;;;;;;;6.27;2.30;;;;;;;;;;4963491;28;20175;-82
2022/07/02 05:35:21;;;;;;;3.30;2.10;;;;;;;;;;4963780;28;20230;-82
2022/07/02 05:38:26;;;;;;;2.90;2.60;;;;;;;;;;4953150;28;20223;-82
2022/07/02 05:41:30;;;;;;;3.97;2.60;;;;;;;;;;4952873;28;20202;-82
2022/07/02 05:44:34;;;;;;;3.87;2.73;;;;;;;;;;4941852;28;20190;-82
2022/07/02 05:47:38;;;;;;;2.40;2.20;;;;;;;;;;4952365;28;20217;-82
2022/07/02 05:50:43;;;;;;;3.77;2.50;;;;;;;;;;4941500;28;20183;-82
2022/07/02 05:53:46;;;;;;;2.30;2.10;;;;;;;;;;4952500;28;20613;-82
2022/07/02 05:56:51;;;;;;;5.50;2.23;;;;;;;;;;4963369;28;20187;-82
2022/07/02 05:59:56;;;;;;;2.40;1.83;;;;;;;;;;4952124;28;20175;-82
2022/07/02 06:03:00;;;;;;;3.37;2.40;;;;;;;;;;4963036;28;20555;-82
2022/07/02 06:09:26;;;;;;;2.57;2.37;;;;;;;;;;4952017;28;20191;-83
2022/07/02 06:12:31;;;;;;;2.87;2.57;;;;;;;;;;4963418;28;20175;-82
2022/07/02 06:15:35;;;;;;;2.77;2.50;;;;;;;;;;4952122;28;20182;-82
2022/07/02 06:18:39;;;;;;;2.53;2.30;;;;;;;;;;4962805;28;20218;-82
2022/07/02 06:21:44;;;;;;;3.27;2.47;;;;;;;;;;4962580;28;20226;-83
2022/07/02 06:24:48;;;;;;;3.90;2.40;;;;;;;;;;4955605;28;20186;-83
2022/07/02 06:27:52;;;;;;;3.13;2.77;;;;;;;;;;4978743;28;20222;-83
2022/07/02 06:30:56;;;;;;;3.17;2.87;;;;;;;;;;4945065;28;20186;-83
2022/07/02 06:34:00;;;;;;;3.10;2.80;;;;;;;;;;4956197;28;20179;-83
2022/07/02 06:37:04;;;;;;;3.00;2.80;;;;;;;;;;4955562;28;20187;-83
2022/07/02 06:40:09;;;;;;;2.73;2.27;;;;;;;;;;4966336;28;20186;-83
2022/07/02 06:43:13;;;;;;;3.80;3.20;;;;;;;;;;4943926;28;20211;-83
2022/07/02 06:46:17;;;;;;;3.90;3.00;;;;;;;;;;4947110;29;20647;-83
2022/07/02 06:49:21;;;;;;;2.87;2.40;;;;;;;;;;4936027;29;20696;-83
2022/07/02 06:52:26;;;;;;;5.23;3.13;;;;;;;;;;4936628;29;20179;-83
2022/07/02 06:55:30;;;;;;;2.50;2.20;;;;;;;;;;4936307;29;20631;-83
2022/07/02 06:58:34;;;;;;;5.93;2.70;;;;;;;;;;4943078;29;20239;-84
2022/07/02 07:01:38;;;;;;;3.70;2.93;;;;;;;;;;4939364;28;20210;-87
2022/07/02 07:04:42;;;;;;;3.30;2.67;;;;;;;;;;4974522;28;20521;-84
2022/07/02 07:07:46;;;;;;;3.20;2.60;;;;;;;;;;4941475;29;20214;-83
2022/07/02 07:10:51;;;;;;;5.20;2.60;;;;;;;;;;4936001;29;20184;-83
2022/07/02 07:13:55;;;;;;;2.93;2.60;;;;;;;;;;4935556;29;20187;-84
2022/07/02 07:17:00;;;;;;;2.17;1.93;;;;;;;;;;4946290;29;20180;-83
2022/07/02 07:20:05;;;;;;;2.50;1.90;;;;;;;;;;4924754;29;20171;-83
2022/07/02 07:23:09;;;;;;;2.10;1.50;;;;;;;;;;4935173;29;20211;-84
2022/07/02 07:26:13;;;;;;;1.63;1.50;;;;;;;;;;4957027;28;20643;-83
2022/07/02 07:29:17;;;;;;;2.03;1.40;;;;;;;;;;4946229;29;20689;-83
2022/07/02 07:32:21;;;;;;;2.90;1.50;;;;;;;;;;4946434;29;20176;-83
2022/07/02 07:35:25;;;;;;;1.97;1.30;;;;;;;;;;4923388;29;20184;-83
2022/07/02 07:38:29;;;;;;;1.63;1.00;;;;;;;;;;4924371;29;20218;-85
2022/07/02 07:41:34;;;;;;;3.73;1.40;;;;;;;;;;4934806;29;20179;-84
2022/07/02 07:44:38;;;;;;;1.70;1.20;;;;;;;;;;4958086;29;20184;-87
2022/07/02 07:47:43;;;;;;;1.07;0.97;;;;;;;;;;4924376;29;20219;-87
2022/07/02 07:50:47;;;;;;;49.73;7.07;;;;;;;;;;4934780;29;20647;-87
2022/07/02 07:53:51;;;;;;;4.83;1.13;;;;;;;;;;4945933;29;20193;-87
2022/07/02 07:56:55;;;;;;;9.47;1.20;;;;;;;;;;4923807;29;20187;-87
2022/07/02 07:59:59;;;;;;;5.30;0.97;;;;;;;;;;4924135;29;20184;-87
2022/07/02 08:03:03;;;;;;;45.03;5.77;;;;;;;;;;4934665;29;20211;-87
2022/07/02 08:25:59;;;;;;;0.93;0.83;;;;;;;;;;4962767;28;20308;-91
2022/07/02 08:29:03;;;;;;;0.50;0.50;;;;;;;;;;4934400;29;20212;-91
2022/07/02 08:32:11;;;;;;;3.13;0.77;;;;;;;;;;4934920;29;20185;-93
2022/07/02 08:35:16;;;;;;;2.43;0.73;;;;;;;;;;4934433;29;20549;-91
2022/07/02 15:00:42;;;;;;;2.00;0.70;;;;;;;;;;4993514;28;20270;-87
2022/07/02 15:03:46;;;;;;;1.00;0.60;;;;;;;;;;4953013;28;20175;-86
2022/07/02 15:06:51;;;;;;;2.10;0.65;;;;;;;;;;4952464;28;20198;-86
2022/07/02 15:09:55;;;;;;;2.42;0.82;;;;;;;;;;4957471;28;20525;-86
2022/07/02 15:12:59;;;;;;;1.05;0.65;;;;;;;;;;4961380;28;20190;-86
2022/07/02 15:16:03;;;;;;;2.03;0.73;;;;;;;;;;4984717;28;20206;-86
2022/07/02 15:19:07;;;;;;;1.63;0.88;;;;;;;;;;4946158;28;20223;-86
2022/07/02 15:22:13;;;;;;;1.02;0.82;;;;;;;;;;4947782;28;20195;-85
2022/07/02 15:25:21;;;;;;;2.90;0.77;;;;;;;;;;4973319;28;20293;-87
2022/07/02 15:28:32;;;;;;;1.42;0.80;;;;;;;;;;4983629;28;20226;-86
2022/07/02 15:31:43;;;;;;;2.33;0.70;;;;;;;;;;4961713;28;20193;-86
2022/07/02 15:34:47;;;;;;;3.08;1.40;;;;;;;;;;4957028;28;20218;-83
2022/07/02 15:37:53;;;;;;;3.33;0.90;;;;;;;;;;4983228;28;20232;-83
2022/07/02 15:40:58;;;;;;;4.03;0.80;;;;;;;;;;4958116;28;20191;-83
2022/07/02 15:44:03;;;;;;;2.08;0.60;;;;;;;;;;4963414;28;20201;-84
2022/07/02 15:47:07;;;;;;;1.67;0.70;;;;;;;;;;4952061;28;20553;-84
2022/07/02 15:50:11;;;;;;;1.60;0.60;;;;;;;;;;4964991;28;20181;-84
2022/07/02 15:53:20;;;;;;;0.80;0.60;;;;;;;;;;4963257;28;20201;-84
2022/07/02 15:56:29;;;;;;;1.90;0.60;;;;;;;;;;4980166;28;20196;-86
2022/07/02 15:59:34;;;;;;;2.22;0.70;;;;;;;;;;4972697;28;20218;-86
2022/07/02 16:02:41;;;;;;;1.58;0.60;;;;;;;;;;4984573;28;20187;-86
2022/07/02 16:05:48;;;;;;;1.23;0.60;;;;;;;;;;4971859;28;20187;-86
2022/07/02 16:08:53;;;;;;;2.30;0.63;;;;;;;;;;4961244;28;20217;-84
2022/07/02 16:11:59;;;;;;;0.90;0.55;;;;;;;;;;4961576;28;20207;-85
2022/07/02 16:15:04;;;;;;;1.52;0.70;;;;;;;;;;4972267;28;20222;-87
2022/07/02 16:18:09;;;;;;;0.73;0.53;;;;;;;;;;4983447;28;20234;-86
2022/07/02 16:21:13;;;;;;;2.13;0.70;;;;;;;;;;4961884;28;20653;-87
2022/07/02 16:24:20;;;;;;;0.90;0.80;;;;;;;;;;4971856;28;20192;-87
2022/07/02 16:27:24;;;;;;;2.93;0.90;;;;;;;;;;4971102;28;20228;-86
2022/07/02 16:30:31;;;;;;;2.63;0.63;;;;;;;;;;4971962;28;20190;-86
2022/07/02 16:34:01;;;;;;;2.23;0.90;;;;;;;;;;4961109;28;20561;-87
2022/07/02 16:37:20;;;;;;;0.93;0.90;;;;;;;;;;4961512;28;20533;-86
2022/07/02 16:40:25;;;;;;;2.27;0.70;;;;;;;;;;4982813;28;20195;-87
2022/07/02 16:43:35;;;;;;;0.80;0.60;;;;;;;;;;4971895;28;20206;-84
2022/07/02 16:46:44;;;;;;;2.97;0.50;;;;;;;;;;4971053;28;20659;-87
2022/07/02 16:49:51;;;;;;;2.10;0.60;;;;;;;;;;4978174;28;20666;-84
2022/07/02 16:53:03;;;;;;;3.67;0.90;;;;;;;;;;4981052;28;20201;-87
2022/07/02 16:56:11;;;;;;;1.53;0.60;;;;;;;;;;4971314;28;20203;-87
2022/07/02 16:59:17;;;;;;;10.87;9.87;;;;;;;;;;4968526;28;20236;-86
2022/07/02 17:02:23;;;;;;;0.80;0.73;;;;;;;;;;4959397;28;20208;-87
2022/07/02 17:05:27;;;;;;;2.17;0.85;;;;;;;;;;4959392;28;20798;-87
2022/07/02 17:08:32;;;;;;;1.20;0.80;;;;;;;;;;4962848;28;20784;-83
2022/07/02 17:11:39;;;;;;;0.80;0.73;;;;;;;;;;4971704;28;20721;-83
2022/07/02 17:14:44;;;;;;;3.17;0.80;;;;;;;;;;4955859;28;20212;-84
2022/07/02 17:17:49;;;;;;;0.87;0.80;;;;;;;;;;4969773;28;20224;-84
2022/07/02 17:20:54;;;;;;;1.70;0.70;;;;;;;;;;4970316;28;20645;-82
2022/07/02 17:23:58;;;;;;;25.50;21.60;;;;;;;;;;4980447;28;20190;-82
2022/07/02 17:27:03;;;;;;;3.47;1.83;;;;;;;;;;4983248;28;20194;-82
2022/07/02 17:30:08;;;;;;;2.30;1.10;;;;;;;;;;4963003;28;20192;-86
2022/07/02 17:33:12;;;;;;;2.63;0.90;;;;;;;;;;4969392;28;20192;-86
2022/07/02 17:36:16;;;;;;;0.90;0.80;;;;;;;;;;4959279;28;20190;-84
2022/07/02 17:39:20;;;;;;;1.40;0.90;;;;;;;;;;4973513;28;20221;-85
2022/07/02 17:42:25;;;;;;;4.73;3.00;;;;;;;;;;4979587;28;20195;-86
2022/07/02 17:45:29;;;;;;;2.87;0.80;;;;;;;;;;4972916;28;20266;-86
2022/07/02 17:48:34;;;;;;;3.97;0.70;;;;;;;;;;4974673;28;20216;-86
2022/07/02 17:51:38;;;;;;;2.63;0.80;;;;;;;;;;4971677;28;20206;-85
2022/07/02 17:54:42;;;;;;;1.10;0.83;;;;;;;;;;4969565;28;20218;-85
2022/07/02 17:57:46;;;;;;;1.33;0.83;;;;;;;;;;4984193;28;20229;-86
2022/07/02 18:00:51;;;;;;;0.90;0.80;;;;;;;;;;5021016;23;20232;-83
2022/07/02 18:03:55;;;;;;;4.73;0.90;;;;;;;;;;5009997;28;20193;-83
2022/07/02 18:06:59;;;;;;;1.87;0.80;;;;;;;;;;5000114;28;20177;-83
2022/07/02 18:10:04;;;;;;;1.77;0.87;;;;;;;;;;5003907;28;20219;-83
2022/07/02 18:13:09;;;;;;;1.27;0.90;;;;;;;;;;4991108;28;20186;-83
2022/07/02 18:16:13;;;;;;;1.10;0.90;;;;;;;;;;5019925;28;20216;-83
2022/07/02 18:19:17;;;;;;;1.60;0.90;;;;;;;;;;5008808;28;20229;-83
2022/07/02 18:22:21;;;;;;;6.37;1.17;;;;;;;;;;4995032;28;20185;-83
2022/07/02 18:25:25;;;;;;;3.67;0.97;;;;;;;;;;4991879;28;20193;-84
2022/07/02 18:28:29;;;;;;;1.53;0.90;;;;;;;;;;5002821;28;20181;-83
2022/07/02 18:31:34;;;;;;;2.10;0.80;;;;;;;;;;4994145;28;20196;-83
2022/07/02 18:34:38;;;;;;;1.23;0.80;;;;;;;;;;5016173;28;20217;-83
2022/07/02 18:37:43;;;;;;;2.03;1.00;;;;;;;;;;5006807;28;20201;-85
2022/07/02 18:40:47;;;;;;;1.73;1.20;;;;;;;;;;5023072;28;20217;-85
2022/07/02 18:43:52;;;;;;;1.57;1.00;;;;;;;;;;5007600;28;20181;-85
2022/07/02 18:46:56;;;;;;;1.67;0.90;;;;;;;;;;4999081;28;20533;-85
2022/07/02 18:50:01;;;;;;;0.97;0.80;;;;;;;;;;5028671;28;20224;-84
2022/07/02 18:53:05;;;;;;;3.17;0.90;;;;;;;;;;5013635;28;20198;-85
2022/07/02 18:56:10;;;;;;;2.43;1.07;;;;;;;;;;4996511;28;20213;-84
2022/07/02 18:59:15;;;;;;;1.83;0.80;;;;;;;;;;5001205;28;20232;-83
2022/07/02 19:02:19;;;;;;;3.03;0.93;;;;;;;;;;4994939;28;20194;-88
2022/07/02 19:05:23;;;;;;;2.30;1.10;;;;;;;;;;4982325;28;20182;-86
2022/07/02 19:08:28;;;;;;;1.43;1.00;;;;;;;;;;5005057;28;20549;-86
2022/07/02 19:11:33;;;;;;;3.33;1.10;;;;;;;;;;5011418;28;20556;-86
2022/07/02 19:14:38;;;;;;;8.03;3.87;;;;;;;;;;4996879;28;20213;-86
2022/07/02 19:17:42;;;;;;;9.37;4.20;;;;;;;;;;4983657;28;20205;-84
2022/07/02 19:20:47;;;;;;;1.13;1.03;;;;;;;;;;4983324;28;20217;-83
2022/07/02 19:23:52;;;;;;;1.50;0.97;;;;;;;;;;4994665;28;20181;-84
2022/07/02 19:30:30;;;;;;;2.60;0.90;;;;;;;;;;4991826;28;20225;-84
2022/07/02 19:33:35;;;;;;;3.53;1.77;;;;;;;;;;4996391;28;20197;-83
2022/07/02 19:36:39;;;;;;;4.40;2.93;;;;;;;;;;5004778;28;20216;-83
2022/07/02 19:39:43;;;;;;;3.47;1.30;;;;;;;;;;4979471;28;20577;-84
2022/07/02 19:42:49;;;;;;;3.93;1.27;;;;;;;;;;4959030;28;20234;-85
2022/07/02 19:45:53;;;;;;;6.93;1.50;;;;;;;;;;4951386;28;20186;-83
2022/07/02 19:48:57;;;;;;;4.23;1.30;;;;;;;;;;4978679;28;20191;-83
2022/07/02 19:52:02;;;;;;;1.20;1.10;;;;;;;;;;4953309;28;20195;-84
2022/07/02 19:55:08;;;;;;;1.17;1.00;;;;;;;;;;4956767;28;20301;-83
2022/07/02 19:58:12;;;;;;;1.57;1.10;;;;;;;;;;4976402;28;20195;-83
2022/07/02 20:01:20;;;;;;;1.63;1.10;;;;;;;;;;4948031;28;20230;-84
2022/07/02 20:04:24;;;;;;;1.93;1.10;;;;;;;;;;4967335;28;20202;-84
2022/07/02 20:07:28;;;;;;;1.37;1.10;;;;;;;;;;4957191;28;20195;-84
2022/07/02 20:10:33;;;;;;;3.43;1.33;;;;;;;;;;4949026;28;20574;-84
2022/07/02 20:13:37;;;;;;;2.20;1.30;;;;;;;;;;4958446;28;20190;-84
2022/07/02 20:16:41;;;;;;;3.60;1.20;;;;;;;;;;4941802;28;20187;-86
2022/07/02 20:19:45;;;;;;;2.20;1.40;;;;;;;;;;4964896;28;20566;-84
2022/07/02 20:22:50;;;;;;;1.53;1.43;;;;;;;;;;4943929;28;20224;-84
2022/07/02 20:25:54;;;;;;;2.77;1.50;;;;;;;;;;4965974;28;20227;-84
2022/07/02 20:28:59;;;;;;;1.97;1.40;;;;;;;;;;4957727;28;20190;-84
2022/07/02 20:32:07;;;;;;;3.97;1.50;;;;;;;;;;4956256;28;20665;-84
2022/07/02 20:35:11;;;;;;;1.97;1.50;;;;;;;;;;4953198;28;20183;-86
2022/07/02 20:38:16;;;;;;;5.07;1.33;;;;;;;;;;4966397;28;20199;-87
2022/07/02 20:41:20;;;;;;;2.47;1.57;;;;;;;;;;4951283;28;20190;-86
2022/07/02 20:44:24;;;;;;;3.30;1.47;;;;;;;;;;4955687;28;20187;-85
2022/07/02 20:47:28;;;;;;;3.77;1.50;;;;;;;;;;4970141;28;20198;-86
2022/07/02 20:50:32;;;;;;;3.03;1.50;;;;;;;;;;4968154;28;20653;-85
2022/07/02 20:53:36;;;;;;;2.20;1.57;;;;;;;;;;4970368;28;20205;-86
2022/07/02 20:56:41;;;;;;;2.40;1.90;;;;;;;;;;4972666;28;20186;-87
2022/07/02 20:59:45;;;;;;;2.47;1.80;;;;;;;;;;4986175;28;20226;-85
2022/07/02 21:02:49;;;;;;;1.90;1.70;;;;;;;;;;4956333;28;20661;-86
2022/07/02 21:05:54;;;;;;;3.73;1.50;;;;;;;;;;4939850;28;20219;-86
2022/07/02 21:08:58;;;;;;;7.47;1.77;;;;;;;;;;4975996;28;20527;-86
2022/07/02 21:12:03;;;;;;;5.80;1.77;;;;;;;;;;4965085;28;20190;-87
2022/07/02 21:15:07;;;;;;;3.57;1.80;;;;;;;;;;4983008;28;20198;-85
2022/07/02 21:18:11;;;;;;;1.90;1.70;;;;;;;;;;4954062;28;20638;-87
2022/07/02 21:21:17;;;;;;;2.20;1.70;;;;;;;;;;4966240;28;20218;-86
2022/07/02 21:24:21;;;;;;;3.17;1.80;;;;;;;;;;4976412;28;20661;-84
2022/07/02 21:27:25;;;;;;;3.30;2.03;;;;;;;;;;4963526;28;20194;-85
2022/07/02 21:30:29;;;;;;;2.77;1.70;;;;;;;;;;4962906;28;20218;-85
2022/07/02 21:33:34;;;;;;;2.10;1.50;;;;;;;;;;4969597;28;20206;-86
2022/07/02 21:36:38;;;;;;;4.60;1.97;;;;;;;;;;4958755;28;20558;-86
2022/07/02 21:39:43;;;;;;;3.10;1.80;;;;;;;;;;4974769;28;20217;-86
2022/07/02 21:42:47;;;;;;;2.37;1.80;;;;;;;;;;4965283;28;20207;-84
2022/07/02 21:45:51;;;;;;;2.70;1.67;;;;;;;;;;4971551;28;20218;-86
2022/07/02 21:49:00;;;;;;;2.37;1.93;;;;;;;;;;4954648;28;20207;-84
2022/07/02 21:52:06;;;;;;;2.90;2.00;;;;;;;;;;4968110;28;20194;-87
2022/07/02 21:55:10;;;;;;;2.37;1.93;;;;;;;;;;4973456;28;20182;-87
2022/07/02 21:58:15;;;;;;;2.47;1.70;;;;;;;;;;4952788;28;20203;-85
2022/07/02 22:01:19;;;;;;;3.20;2.10;;;;;;;;;;4935986;28;20235;-85
2022/07/02 22:04:24;;;;;;;2.40;1.97;;;;;;;;;;4967406;28;20182;-83
2022/07/02 22:07:28;;;;;;;5.40;2.20;;;;;;;;;;4940428;28;20670;-86
2022/07/02 22:10:34;;;;;;;3.23;2.23;;;;;;;;;;4933525;29;20227;-86
2022/07/02 22:13:38;;;;;;;2.30;2.00;;;;;;;;;;4929423;29;20199;-85
2022/07/02 22:16:42;;;;;;;3.13;2.20;;;;;;;;;;4923038;29;20187;-85
2022/07/02 22:19:46;;;;;;;2.53;1.90;;;;;;;;;;4955616;28;20230;-86
2022/07/02 22:22:50;;;;;;;2.50;2.30;;;;;;;;;;4952888;28;20191;-85
2022/07/02 22:25:56;;;;;;;3.27;1.90;;;;;;;;;;4936109;28;20222;-85
2022/07/02 22:29:00;;;;;;;3.87;2.30;;;;;;;;;;4959685;28;20190;-84
2022/07/02 22:32:05;;;;;;;2.07;1.87;;;;;;;;;;4993299;28;20673;-85
2022/07/02 22:35:09;;;;;;;3.80;2.10;;;;;;;;;;4946814;28;20203;-85
2022/07/02 22:38:14;;;;;;;5.60;2.30;;;;;;;;;;4953544;28;20186;-85
2022/07/02 22:41:25;;;;;;;2.47;2.13;;;;;;;;;;4963680;28;20230;-86
2022/07/02 22:44:29;;;;;;;2.73;2.40;;;;;;;;;;4952460;28;20542;-86
2022/07/02 22:47:34;;;;;;;3.73;2.30;;;;;;;;;;4975069;28;20226;-85
2022/07/02 22:50:39;;;;;;;3.53;2.30;;;;;;;;;;4933047;29;20215;-85
2022/07/02 22:53:44;;;;;;;2.30;2.10;;;;;;;;;;4944419;29;20187;-86
2022/07/02 22:56:47;;;;;;;4.93;2.53;;;;;;;;;;4922557;29;20184;-85
2022/07/02 22:59:52;;;;;;;2.43;2.10;;;;;;;;;;4954966;28;20226;-85
2022/07/02 23:02:56;;;;;;;4.50;2.27;;;;;;;;;;4933446;29;20183;-85
2022/07/02 23:06:00;;;;;;;2.87;2.30;;;;;;;;;;4925209;29;20219;-85
2022/07/02 23:09:04;;;;;;;2.87;2.43;;;;;;;;;;4944415;28;20199;-85
2022/07/02 23:12:08;;;;;;;3.63;2.60;;;;;;;;;;4966870;28;20195;-85
2022/07/02 23:15:12;;;;;;;2.97;2.53;;;;;;;;;;4966271;28;20195;-85
2022/07/02 23:18:16;;;;;;;2.70;2.40;;;;;;;;;;4964489;28;20645;-85
2022/07/02 23:21:21;;;;;;;2.53;2.20;;;;;;;;;;4952811;29;20683;-85
2022/07/02 23:24:26;;;;;;;2.63;2.37;;;;;;;;;;4940030;29;20655;-86
2022/07/02 23:27:29;;;;;;;2.97;2.27;;;;;;;;;;4952796;28;20207;-85
2022/07/02 23:30:33;;;;;;;2.70;2.30;;;;;;;;;;4963359;28;20692;-86
2022/07/02 23:33:38;;;;;;;2.50;2.30;;;;;;;;;;4985637;28;20182;-85
2022/07/02 23:36:57;;;;;;;3.13;2.83;;;;;;;;;;4974557;28;20182;-84
2022/07/02 23:40:03;;;;;;;4.97;2.50;;;;;;;;;;4935744;29;20227;-86
2022/07/02 23:43:07;;;;;;;3.10;2.47;;;;;;;;;;4953297;28;20195;-86
2022/07/02 23:46:11;;;;;;;2.60;2.40;;;;;;;;;;4962922;28;20676;-86
2022/07/02 23:49:16;;;;;;;4.30;2.30;;;;;;;;;;4959843;28;20222;-85
2022/07/02 23:52:20;;;;;;;3.07;2.40;;;;;;;;;;4966481;28;20519;-85
2022/07/02 23:55:24;;;;;;;4.67;3.13;;;;;;;;;;4954962;28;20206;-85
2022/07/02 23:58:28;;;;;;;3.27;2.73;;;;;;;;;;4977058;28;20198;-85
